sensor_id;sensor_type;location;lat;lon;timestamp;P1;durP1;ratioP1;P2;durP2;ratioP2
17259;SDS011;8746;49.230;9.220;2023-03-15T00:00:51;4.97;;;2.30;;
17259;SDS011;8746;49.230;9.220;2023-03-15T00:03:18;4.57;;;2.10;;
17259;SDS011;8746;49.230;9.220;2023-03-15T00:05:45;4.67;;;2.60;;
17259;SDS011;8746;49.230;9.220;2023-03-15T00:08:12;2.77;;;2.20;;
17259;SDS011;8746;49.230;9.220;2023-03-15T00:10:39;3.70;;;2.43;;
17259;SDS011;8746;49.230;9.220;2023-03-15T00:13:06;4.33;;;2.67;;
17259;SDS011;8746;49.230;9.220;2023-03-15T00:15:31;5.53;;;2.70;;
17259;SDS011;8746;49.230;9.220;2023-03-15T00:17:56;3.20;;;2.23;;
17259;SDS011;8746;49.230;9.220;2023-03-15T00:20:22;4.10;;;2.53;;
17259;SDS011;8746;49.230;9.220;2023-03-15T00:22:47;2.87;;;2.17;;
17259;SDS011;8746;49.230;9.220;2023-03-15T00:25:12;4.37;;;2.70;;
17259;SDS011;8746;49.230;9.220;2023-03-15T00:27:37;3.90;;;2.57;;
17259;SDS011;8746;49.230;9.220;2023-03-15T00:30:03;4.63;;;2.50;;
17259;SDS011;8746;49.230;9.220;2023-03-15T00:32:29;5.23;;;2.67;;
17259;SDS011;8746;49.230;9.220;2023-03-15T00:34:55;3.97;;;2.70;;
17259;SDS011;8746;49.230;9.220;2023-03-15T00:37:21;4.87;;;3.20;;
17259;SDS011;8746;49.230;9.220;2023-03-15T00:39:49;4.33;;;3.13;;
17259;SDS011;8746;49.230;9.220;2023-03-15T00:42:15;4.93;;;3.70;;
17259;SDS011;8746;49.230;9.220;2023-03-15T00:44:41;4.43;;;3.33;;
17259;SDS011;8746;49.230;9.220;2023-03-15T00:47:08;5.23;;;3.30;;
17259;SDS011;8746;49.230;9.220;2023-03-15T00:49:38;4.50;;;3.63;;
17259;SDS011;8746;49.230;9.220;2023-03-15T00:52:04;6.17;;;4.20;;
17259;SDS011;8746;49.230;9.220;2023-03-15T00:54:30;6.60;;;4.27;;
17259;SDS011;8746;49.230;9.220;2023-03-15T00:56:59;6.73;;;4.50;;
17259;SDS011;8746;49.230;9.220;2023-03-15T00:59:26;8.80;;;5.00;;
17259;SDS011;8746;49.230;9.220;2023-03-15T01:01:53;8.63;;;5.70;;
17259;SDS011;8746;49.230;9.220;2023-03-15T01:04:18;6.20;;;4.77;;
17259;SDS011;8746;49.230;9.220;2023-03-15T01:06:43;8.57;;;4.70;;
17259;SDS011;8746;49.230;9.220;2023-03-15T01:09:08;8.23;;;5.10;;
17259;SDS011;8746;49.230;9.220;2023-03-15T01:11:34;8.23;;;5.27;;
17259;SDS011;8746;49.230;9.220;2023-03-15T01:14:00;8.00;;;5.00;;
17259;SDS011;8746;49.230;9.220;2023-03-15T01:16:27;8.47;;;5.33;;
17259;SDS011;8746;49.230;9.220;2023-03-15T01:18:53;8.80;;;5.90;;
17259;SDS011;8746;49.230;9.220;2023-03-15T01:21:18;9.40;;;5.40;;
17259;SDS011;8746;49.230;9.220;2023-03-15T01:23:45;10.87;;;5.43;;
17259;SDS011;8746;49.230;9.220;2023-03-15T01:26:12;6.73;;;5.13;;
17259;SDS011;8746;49.230;9.220;2023-03-15T01:28:38;8.03;;;5.47;;
17259;SDS011;8746;49.230;9.220;2023-03-15T01:31:04;8.40;;;5.03;;
17259;SDS011;8746;49.230;9.220;2023-03-15T01:33:30;8.40;;;5.23;;
17259;SDS011;8746;49.230;9.220;2023-03-15T01:36:05;7.87;;;5.40;;
17259;SDS011;8746;49.230;9.220;2023-03-15T01:38:31;9.17;;;5.10;;
17259;SDS011;8746;49.230;9.220;2023-03-15T01:40:57;7.77;;;5.00;;
17259;SDS011;8746;49.230;9.220;2023-03-15T01:43:23;6.90;;;4.97;;
17259;SDS011;8746;49.230;9.220;2023-03-15T01:53:48;9.30;;;5.17;;
17259;SDS011;8746;49.230;9.220;2023-03-15T01:56:18;10.90;;;5.10;;
17259;SDS011;8746;49.230;9.220;2023-03-15T01:58:46;9.03;;;5.80;;
17259;SDS011;8746;49.230;9.220;2023-03-15T02:01:13;7.47;;;5.07;;
17259;SDS011;8746;49.230;9.220;2023-03-15T02:03:40;9.57;;;5.73;;
17259;SDS011;8746;49.230;9.220;2023-03-15T02:06:13;9.40;;;5.17;;
17259;SDS011;8746;49.230;9.220;2023-03-15T02:08:54;9.73;;;5.30;;
17259;SDS011;8746;49.230;9.220;2023-03-15T02:11:23;8.33;;;5.17;;
17259;SDS011;8746;49.230;9.220;2023-03-15T02:13:51;8.83;;;4.57;;
17259;SDS011;8746;49.230;9.220;2023-03-15T02:16:18;8.80;;;4.70;;
17259;SDS011;8746;49.230;9.220;2023-03-15T02:18:46;6.93;;;4.63;;
17259;SDS011;8746;49.230;9.220;2023-03-15T02:26:53;6.90;;;4.20;;
17259;SDS011;8746;49.230;9.220;2023-03-15T02:29:20;6.93;;;4.40;;
17259;SDS011;8746;49.230;9.220;2023-03-15T02:31:48;7.83;;;4.33;;
17259;SDS011;8746;49.230;9.220;2023-03-15T02:34:13;7.43;;;4.50;;
17259;SDS011;8746;49.230;9.220;2023-03-15T02:36:39;7.30;;;4.13;;
17259;SDS011;8746;49.230;9.220;2023-03-15T02:39:14;6.90;;;3.67;;
17259;SDS011;8746;49.230;9.220;2023-03-15T02:41:41;5.30;;;4.00;;
17259;SDS011;8746;49.230;9.220;2023-03-15T02:44:18;7.43;;;4.23;;
17259;SDS011;8746;49.230;9.220;2023-03-15T02:46:49;7.87;;;3.93;;
17259;SDS011;8746;49.230;9.220;2023-03-15T02:49:16;8.80;;;3.67;;
17259;SDS011;8746;49.230;9.220;2023-03-15T02:51:45;6.80;;;4.00;;
17259;SDS011;8746;49.230;9.220;2023-03-15T02:54:11;4.97;;;3.07;;
17259;SDS011;8746;49.230;9.220;2023-03-15T02:56:36;7.33;;;3.17;;
17259;SDS011;8746;49.230;9.220;2023-03-15T02:59:02;5.73;;;2.83;;
17259;SDS011;8746;49.230;9.220;2023-03-15T03:01:27;5.93;;;3.10;;
17259;SDS011;8746;49.230;9.220;2023-03-15T03:03:53;8.17;;;3.07;;
17259;SDS011;8746;49.230;9.220;2023-03-15T03:06:18;3.83;;;2.40;;
17259;SDS011;8746;49.230;9.220;2023-03-15T03:08:43;4.20;;;2.80;;
17259;SDS011;8746;49.230;9.220;2023-03-15T03:11:12;3.80;;;2.77;;
17259;SDS011;8746;49.230;9.220;2023-03-15T03:13:39;6.20;;;2.60;;
17259;SDS011;8746;49.230;9.220;2023-03-15T03:16:05;4.23;;;2.47;;
17259;SDS011;8746;49.230;9.220;2023-03-15T03:18:31;6.47;;;3.10;;
17259;SDS011;8746;49.230;9.220;2023-03-15T03:21:00;6.00;;;2.80;;
17259;SDS011;8746;49.230;9.220;2023-03-15T03:23:28;4.23;;;2.90;;
17259;SDS011;8746;49.230;9.220;2023-03-15T03:25:55;9.13;;;3.30;;
17259;SDS011;8746;49.230;9.220;2023-03-15T03:28:22;4.53;;;3.23;;
17259;SDS011;8746;49.230;9.220;2023-03-15T03:30:49;5.67;;;3.27;;
17259;SDS011;8746;49.230;9.220;2023-03-15T03:33:15;6.23;;;2.87;;
17259;SDS011;8746;49.230;9.220;2023-03-15T03:35:41;3.87;;;2.80;;
17259;SDS011;8746;49.230;9.220;2023-03-15T03:38:07;4.70;;;2.90;;
17259;SDS011;8746;49.230;9.220;2023-03-15T03:40:33;3.40;;;2.97;;
17259;SDS011;8746;49.230;9.220;2023-03-15T03:42:59;2.93;;;2.40;;
17259;SDS011;8746;49.230;9.220;2023-03-15T03:45:26;6.13;;;2.90;;
17259;SDS011;8746;49.230;9.220;2023-03-15T03:47:52;2.87;;;2.47;;
17259;SDS011;8746;49.230;9.220;2023-03-15T03:50:17;5.70;;;2.70;;
17259;SDS011;8746;49.230;9.220;2023-03-15T03:52:43;5.23;;;2.60;;
17259;SDS011;8746;49.230;9.220;2023-03-15T03:55:08;4.53;;;2.90;;
17259;SDS011;8746;49.230;9.220;2023-03-15T03:57:37;5.47;;;2.60;;
17259;SDS011;8746;49.230;9.220;2023-03-15T04:00:04;2.87;;;2.30;;
17259;SDS011;8746;49.230;9.220;2023-03-15T04:02:29;4.47;;;2.40;;
17259;SDS011;8746;49.230;9.220;2023-03-15T04:04:55;2.53;;;2.33;;
17259;SDS011;8746;49.230;9.220;2023-03-15T04:07:20;9.27;;;2.60;;
17259;SDS011;8746;49.230;9.220;2023-03-15T04:09:46;3.43;;;2.50;;
17259;SDS011;8746;49.230;9.220;2023-03-15T04:12:11;3.33;;;2.43;;
17259;SDS011;8746;49.230;9.220;2023-03-15T04:14:37;4.17;;;2.77;;
17259;SDS011;8746;49.230;9.220;2023-03-15T04:17:02;4.87;;;2.90;;
17259;SDS011;8746;49.230;9.220;2023-03-15T04:19:27;4.23;;;2.60;;
17259;SDS011;8746;49.230;9.220;2023-03-15T04:21:53;3.97;;;2.40;;
17259;SDS011;8746;49.230;9.220;2023-03-15T04:24:18;4.73;;;2.80;;
17259;SDS011;8746;49.230;9.220;2023-03-15T04:26:43;4.00;;;2.70;;
17259;SDS011;8746;49.230;9.220;2023-03-15T04:29:09;5.87;;;2.80;;
17259;SDS011;8746;49.230;9.220;2023-03-15T04:31:36;3.97;;;2.83;;
17259;SDS011;8746;49.230;9.220;2023-03-15T04:34:01;4.20;;;3.03;;
17259;SDS011;8746;49.230;9.220;2023-03-15T04:36:28;5.33;;;3.23;;
17259;SDS011;8746;49.230;9.220;2023-03-15T04:38:53;5.00;;;3.30;;
17259;SDS011;8746;49.230;9.220;2023-03-15T04:41:29;4.60;;;3.17;;
17259;SDS011;8746;49.230;9.220;2023-03-15T04:43:55;5.07;;;3.20;;
17259;SDS011;8746;49.230;9.220;2023-03-15T04:46:20;6.00;;;3.57;;
17259;SDS011;8746;49.230;9.220;2023-03-15T04:48:45;6.67;;;3.20;;
17259;SDS011;8746;49.230;9.220;2023-03-15T04:51:11;3.87;;;3.20;;
17259;SDS011;8746;49.230;9.220;2023-03-15T04:53:36;3.97;;;3.37;;
17259;SDS011;8746;49.230;9.220;2023-03-15T04:56:03;7.63;;;3.63;;
17259;SDS011;8746;49.230;9.220;2023-03-15T04:58:29;4.73;;;3.50;;
17259;SDS011;8746;49.230;9.220;2023-03-15T05:00:55;4.13;;;3.70;;
17259;SDS011;8746;49.230;9.220;2023-03-15T05:03:20;6.47;;;4.07;;
17259;SDS011;8746;49.230;9.220;2023-03-15T05:05:45;6.87;;;4.10;;
17259;SDS011;8746;49.230;9.220;2023-03-15T05:08:11;7.43;;;3.73;;
17259;SDS011;8746;49.230;9.220;2023-03-15T05:10:36;5.80;;;4.33;;
17259;SDS011;8746;49.230;9.220;2023-03-15T05:13:01;9.27;;;4.00;;
17259;SDS011;8746;49.230;9.220;2023-03-15T05:15:27;6.67;;;3.80;;
17259;SDS011;8746;49.230;9.220;2023-03-15T05:17:52;5.23;;;3.97;;
17259;SDS011;8746;49.230;9.220;2023-03-15T05:20:19;8.47;;;3.70;;
17259;SDS011;8746;49.230;9.220;2023-03-15T05:22:45;7.93;;;4.07;;
17259;SDS011;8746;49.230;9.220;2023-03-15T05:25:11;6.30;;;4.07;;
17259;SDS011;8746;49.230;9.220;2023-03-15T05:27:37;7.67;;;4.20;;
17259;SDS011;8746;49.230;9.220;2023-03-15T05:30:03;7.43;;;4.43;;
17259;SDS011;8746;49.230;9.220;2023-03-15T05:32:30;6.73;;;3.80;;
17259;SDS011;8746;49.230;9.220;2023-03-15T05:35:01;6.50;;;3.77;;
17259;SDS011;8746;49.230;9.220;2023-03-15T05:37:27;6.53;;;3.93;;
17259;SDS011;8746;49.230;9.220;2023-03-15T05:39:52;6.90;;;3.80;;
17259;SDS011;8746;49.230;9.220;2023-03-15T05:42:17;5.60;;;3.87;;
17259;SDS011;8746;49.230;9.220;2023-03-15T05:44:49;4.03;;;3.63;;
17259;SDS011;8746;49.230;9.220;2023-03-15T05:47:14;5.37;;;4.10;;
17259;SDS011;8746;49.230;9.220;2023-03-15T05:49:40;7.40;;;4.30;;
17259;SDS011;8746;49.230;9.220;2023-03-15T05:52:05;5.90;;;4.17;;
17259;SDS011;8746;49.230;9.220;2023-03-15T05:54:31;4.83;;;4.13;;
17259;SDS011;8746;49.230;9.220;2023-03-15T05:56:56;6.93;;;4.23;;
17259;SDS011;8746;49.230;9.220;2023-03-15T05:59:21;6.27;;;4.33;;
17259;SDS011;8746;49.230;9.220;2023-03-15T06:01:47;7.40;;;3.83;;
17259;SDS011;8746;49.230;9.220;2023-03-15T06:04:12;8.03;;;4.83;;
17259;SDS011;8746;49.230;9.220;2023-03-15T06:06:37;9.80;;;4.60;;
17259;SDS011;8746;49.230;9.220;2023-03-15T06:09:03;7.57;;;4.50;;
17259;SDS011;8746;49.230;9.220;2023-03-15T06:11:28;7.07;;;4.63;;
17259;SDS011;8746;49.230;9.220;2023-03-15T06:13:53;9.67;;;4.87;;
17259;SDS011;8746;49.230;9.220;2023-03-15T06:16:18;7.53;;;4.57;;
17259;SDS011;8746;49.230;9.220;2023-03-15T06:18:44;7.37;;;4.27;;
17259;SDS011;8746;49.230;9.220;2023-03-15T06:21:10;6.53;;;4.30;;
17259;SDS011;8746;49.230;9.220;2023-03-15T06:23:35;6.10;;;4.30;;
17259;SDS011;8746;49.230;9.220;2023-03-15T06:26:00;6.67;;;3.97;;
17259;SDS011;8746;49.230;9.220;2023-03-15T06:28:26;6.43;;;4.90;;
17259;SDS011;8746;49.230;9.220;2023-03-15T06:30:51;6.27;;;4.60;;
17259;SDS011;8746;49.230;9.220;2023-03-15T06:33:16;9.90;;;5.10;;
17259;SDS011;8746;49.230;9.220;2023-03-15T06:35:42;6.57;;;4.60;;
17259;SDS011;8746;49.230;9.220;2023-03-15T06:38:07;7.87;;;4.47;;
17259;SDS011;8746;49.230;9.220;2023-03-15T06:40:33;8.00;;;4.60;;
17259;SDS011;8746;49.230;9.220;2023-03-15T06:42:59;7.73;;;4.10;;
17259;SDS011;8746;49.230;9.220;2023-03-15T06:45:29;7.13;;;4.13;;
17259;SDS011;8746;49.230;9.220;2023-03-15T06:47:55;6.07;;;3.93;;
17259;SDS011;8746;49.230;9.220;2023-03-15T06:50:21;9.27;;;4.60;;
17259;SDS011;8746;49.230;9.220;2023-03-15T06:52:46;11.40;;;4.00;;
17259;SDS011;8746;49.230;9.220;2023-03-15T06:55:11;6.53;;;4.47;;
17259;SDS011;8746;49.230;9.220;2023-03-15T06:57:42;10.13;;;4.00;;
17259;SDS011;8746;49.230;9.220;2023-03-15T07:00:08;8.83;;;4.43;;
17259;SDS011;8746;49.230;9.220;2023-03-15T07:02:35;8.77;;;4.70;;
17259;SDS011;8746;49.230;9.220;2023-03-15T07:05:01;11.83;;;5.73;;
17259;SDS011;8746;49.230;9.220;2023-03-15T07:07:28;6.53;;;3.90;;
17259;SDS011;8746;49.230;9.220;2023-03-15T07:09:53;8.67;;;3.97;;
17259;SDS011;8746;49.230;9.220;2023-03-15T07:12:19;9.13;;;3.87;;
17259;SDS011;8746;49.230;9.220;2023-03-15T07:14:44;10.27;;;4.70;;
17259;SDS011;8746;49.230;9.220;2023-03-15T07:17:10;7.30;;;4.50;;
17259;SDS011;8746;49.230;9.220;2023-03-15T07:19:36;7.93;;;4.00;;
17259;SDS011;8746;49.230;9.220;2023-03-15T07:22:01;6.87;;;4.13;;
17259;SDS011;8746;49.230;9.220;2023-03-15T07:24:27;9.40;;;4.10;;
17259;SDS011;8746;49.230;9.220;2023-03-15T07:26:52;9.07;;;4.23;;
17259;SDS011;8746;49.230;9.220;2023-03-15T07:29:20;4.97;;;3.37;;
17259;SDS011;8746;49.230;9.220;2023-03-15T07:31:47;7.87;;;3.70;;
17259;SDS011;8746;49.230;9.220;2023-03-15T07:34:12;6.53;;;3.90;;
17259;SDS011;8746;49.230;9.220;2023-03-15T07:36:38;4.47;;;3.40;;
17259;SDS011;8746;49.230;9.220;2023-03-15T07:39:03;7.27;;;3.17;;
17259;SDS011;8746;49.230;9.220;2023-03-15T07:41:28;4.53;;;3.10;;
17259;SDS011;8746;49.230;9.220;2023-03-15T07:43:55;5.03;;;2.63;;
17259;SDS011;8746;49.230;9.220;2023-03-15T07:46:20;5.70;;;3.03;;
17259;SDS011;8746;49.230;9.220;2023-03-15T07:48:46;7.33;;;3.20;;
17259;SDS011;8746;49.230;9.220;2023-03-15T07:51:11;7.90;;;3.30;;
17259;SDS011;8746;49.230;9.220;2023-03-15T07:53:36;4.40;;;3.10;;
17259;SDS011;8746;49.230;9.220;2023-03-15T07:56:02;3.40;;;2.67;;
17259;SDS011;8746;49.230;9.220;2023-03-15T07:58:28;6.70;;;2.70;;
17259;SDS011;8746;49.230;9.220;2023-03-15T08:00:54;9.03;;;3.07;;
17259;SDS011;8746;49.230;9.220;2023-03-15T08:03:20;3.43;;;2.50;;
17259;SDS011;8746;49.230;9.220;2023-03-15T08:05:46;7.93;;;3.00;;
17259;SDS011;8746;49.230;9.220;2023-03-15T08:08:11;7.30;;;2.83;;
17259;SDS011;8746;49.230;9.220;2023-03-15T08:10:37;4.37;;;2.87;;
17259;SDS011;8746;49.230;9.220;2023-03-15T08:13:02;7.20;;;2.83;;
17259;SDS011;8746;49.230;9.220;2023-03-15T08:15:27;6.27;;;2.43;;
17259;SDS011;8746;49.230;9.220;2023-03-15T08:17:53;5.73;;;2.70;;
17259;SDS011;8746;49.230;9.220;2023-03-15T08:20:18;7.33;;;2.47;;
17259;SDS011;8746;49.230;9.220;2023-03-15T08:22:44;8.27;;;2.70;;
17259;SDS011;8746;49.230;9.220;2023-03-15T08:25:13;4.10;;;2.50;;
17259;SDS011;8746;49.230;9.220;2023-03-15T08:27:40;7.80;;;2.60;;
17259;SDS011;8746;49.230;9.220;2023-03-15T08:30:07;3.80;;;2.53;;
17259;SDS011;8746;49.230;9.220;2023-03-15T08:32:43;4.10;;;2.20;;
17259;SDS011;8746;49.230;9.220;2023-03-15T08:35:10;6.00;;;2.97;;
17259;SDS011;8746;49.230;9.220;2023-03-15T08:37:37;2.23;;;2.03;;
17259;SDS011;8746;49.230;9.220;2023-03-15T08:40:03;4.83;;;2.30;;
17259;SDS011;8746;49.230;9.220;2023-03-15T08:42:33;4.10;;;2.50;;
17259;SDS011;8746;49.230;9.220;2023-03-15T08:44:59;3.97;;;2.10;;
17259;SDS011;8746;49.230;9.220;2023-03-15T08:47:26;5.90;;;2.43;;
17259;SDS011;8746;49.230;9.220;2023-03-15T08:49:51;4.67;;;2.57;;
17259;SDS011;8746;49.230;9.220;2023-03-15T08:52:20;4.10;;;2.43;;
17259;SDS011;8746;49.230;9.220;2023-03-15T08:54:46;4.73;;;2.27;;
17259;SDS011;8746;49.230;9.220;2023-03-15T08:57:12;6.70;;;2.40;;
17259;SDS011;8746;49.230;9.220;2023-03-15T08:59:38;6.97;;;2.83;;
17259;SDS011;8746;49.230;9.220;2023-03-15T09:02:03;5.13;;;2.07;;
17259;SDS011;8746;49.230;9.220;2023-03-15T09:04:29;2.53;;;1.40;;
17259;SDS011;8746;49.230;9.220;2023-03-15T09:06:55;3.03;;;1.60;;
17259;SDS011;8746;49.230;9.220;2023-03-15T09:09:20;4.37;;;2.13;;
17259;SDS011;8746;49.230;9.220;2023-03-15T09:11:46;3.90;;;2.10;;
17259;SDS011;8746;49.230;9.220;2023-03-15T09:14:11;5.57;;;2.03;;
17259;SDS011;8746;49.230;9.220;2023-03-15T09:16:36;3.53;;;1.90;;
17259;SDS011;8746;49.230;9.220;2023-03-15T09:19:02;3.27;;;1.97;;
17259;SDS011;8746;49.230;9.220;2023-03-15T09:21:28;4.97;;;1.80;;
17259;SDS011;8746;49.230;9.220;2023-03-15T09:23:53;3.07;;;1.70;;
17259;SDS011;8746;49.230;9.220;2023-03-15T09:26:18;5.20;;;1.50;;
17259;SDS011;8746;49.230;9.220;2023-03-15T09:28:44;2.83;;;1.40;;
17259;SDS011;8746;49.230;9.220;2023-03-15T09:31:09;3.73;;;1.60;;
17259;SDS011;8746;49.230;9.220;2023-03-15T09:33:35;3.80;;;1.50;;
17259;SDS011;8746;49.230;9.220;2023-03-15T09:36:01;3.60;;;1.30;;
17259;SDS011;8746;49.230;9.220;2023-03-15T09:38:26;3.60;;;1.40;;
17259;SDS011;8746;49.230;9.220;2023-03-15T09:40:55;2.70;;;1.40;;
17259;SDS011;8746;49.230;9.220;2023-03-15T09:46:31;5.10;;;1.70;;
17259;SDS011;8746;49.230;9.220;2023-03-15T09:49:11;3.13;;;1.90;;
17259;SDS011;8746;49.230;9.220;2023-03-15T09:57:18;5.50;;;2.00;;
17259;SDS011;8746;49.230;9.220;2023-03-15T09:59:51;3.47;;;2.00;;
17259;SDS011;8746;49.230;9.220;2023-03-15T10:02:20;6.73;;;2.77;;
17259;SDS011;8746;49.230;9.220;2023-03-15T10:04:50;5.23;;;2.10;;
17259;SDS011;8746;49.230;9.220;2023-03-15T10:07:20;5.13;;;2.33;;
17259;SDS011;8746;49.230;9.220;2023-03-15T10:09:45;5.97;;;1.87;;
17259;SDS011;8746;49.230;9.220;2023-03-15T10:12:12;5.33;;;1.73;;
17259;SDS011;8746;49.230;9.220;2023-03-15T10:20:20;3.57;;;1.93;;
17259;SDS011;8746;49.230;9.220;2023-03-15T10:22:57;7.83;;;2.10;;
17259;SDS011;8746;49.230;9.220;2023-03-15T10:25:28;6.83;;;2.00;;
17259;SDS011;8746;49.230;9.220;2023-03-15T10:27:56;4.97;;;2.00;;
17259;SDS011;8746;49.230;9.220;2023-03-15T10:30:23;4.97;;;2.20;;
17259;SDS011;8746;49.230;9.220;2023-03-15T10:32:57;5.60;;;2.17;;
17259;SDS011;8746;49.230;9.220;2023-03-15T10:35:26;5.57;;;2.00;;
17259;SDS011;8746;49.230;9.220;2023-03-15T10:37:52;5.23;;;2.27;;
17259;SDS011;8746;49.230;9.220;2023-03-15T10:43:11;3.63;;;1.80;;
17259;SDS011;8746;49.230;9.220;2023-03-15T10:45:45;4.70;;;2.10;;
17259;SDS011;8746;49.230;9.220;2023-03-15T10:48:11;4.63;;;2.13;;
17259;SDS011;8746;49.230;9.220;2023-03-15T10:50:37;5.13;;;2.50;;
17259;SDS011;8746;49.230;9.220;2023-03-15T10:53:07;4.00;;;2.47;;
17259;SDS011;8746;49.230;9.220;2023-03-15T10:55:36;5.07;;;2.43;;
17259;SDS011;8746;49.230;9.220;2023-03-15T11:00:49;6.90;;;2.37;;
17259;SDS011;8746;49.230;9.220;2023-03-15T11:03:20;3.03;;;1.83;;
17259;SDS011;8746;49.230;9.220;2023-03-15T11:05:51;3.90;;;2.27;;
17259;SDS011;8746;49.230;9.220;2023-03-15T11:08:19;3.63;;;2.47;;
17259;SDS011;8746;49.230;9.220;2023-03-15T11:10:49;4.97;;;2.33;;
17259;SDS011;8746;49.230;9.220;2023-03-15T11:13:24;4.37;;;2.13;;
17259;SDS011;8746;49.230;9.220;2023-03-15T11:15:53;5.47;;;2.20;;
17259;SDS011;8746;49.230;9.220;2023-03-15T11:21:12;4.37;;;2.10;;
17259;SDS011;8746;49.230;9.220;2023-03-15T11:23:43;3.53;;;2.27;;
17259;SDS011;8746;49.230;9.220;2023-03-15T11:26:19;4.13;;;2.10;;
17259;SDS011;8746;49.230;9.220;2023-03-15T11:28:57;2.53;;;1.90;;
17259;SDS011;8746;49.230;9.220;2023-03-15T11:31:28;4.73;;;2.30;;
17259;SDS011;8746;49.230;9.220;2023-03-15T11:33:55;2.93;;;1.73;;
17259;SDS011;8746;49.230;9.220;2023-03-15T11:36:27;3.50;;;2.00;;
17259;SDS011;8746;49.230;9.220;2023-03-15T11:38:57;4.17;;;2.17;;
17259;SDS011;8746;49.230;9.220;2023-03-15T11:44:20;2.50;;;1.60;;
17259;SDS011;8746;49.230;9.220;2023-03-15T11:49:48;3.87;;;2.07;;
17259;SDS011;8746;49.230;9.220;2023-03-15T11:52:18;2.87;;;2.07;;
17259;SDS011;8746;49.230;9.220;2023-03-15T11:54:46;2.77;;;1.77;;
17259;SDS011;8746;49.230;9.220;2023-03-15T11:59:53;2.70;;;1.73;;
17259;SDS011;8746;49.230;9.220;2023-03-15T12:04:48;2.57;;;1.80;;
17259;SDS011;8746;49.230;9.220;2023-03-15T12:09:53;3.83;;;1.60;;
17259;SDS011;8746;49.230;9.220;2023-03-15T12:17:58;3.20;;;1.90;;
17259;SDS011;8746;49.230;9.220;2023-03-15T12:25:36;4.27;;;1.80;;
17259;SDS011;8746;49.230;9.220;2023-03-15T12:28:04;3.80;;;1.77;;
17259;SDS011;8746;49.230;9.220;2023-03-15T12:30:40;6.53;;;2.20;;
17259;SDS011;8746;49.230;9.220;2023-03-15T12:33:14;5.07;;;2.00;;
17259;SDS011;8746;49.230;9.220;2023-03-15T12:35:42;2.97;;;1.70;;
17259;SDS011;8746;49.230;9.220;2023-03-15T12:38:14;2.73;;;1.83;;
17259;SDS011;8746;49.230;9.220;2023-03-15T12:43:35;2.43;;;1.70;;
17259;SDS011;8746;49.230;9.220;2023-03-15T12:46:08;3.13;;;1.60;;
17259;SDS011;8746;49.230;9.220;2023-03-15T12:49:10;1.70;;;1.50;;
17259;SDS011;8746;49.230;9.220;2023-03-15T12:54:49;2.97;;;1.83;;
17259;SDS011;8746;49.230;9.220;2023-03-15T12:57:23;2.40;;;1.80;;
17259;SDS011;8746;49.230;9.220;2023-03-15T12:59:54;1.50;;;1.40;;
17259;SDS011;8746;49.230;9.220;2023-03-15T13:02:32;3.10;;;1.80;;
17259;SDS011;8746;49.230;9.220;2023-03-15T13:05:12;4.60;;;2.07;;
17259;SDS011;8746;49.230;9.220;2023-03-15T13:10:22;2.50;;;2.00;;
17259;SDS011;8746;49.230;9.220;2023-03-15T13:15:57;1.93;;;1.80;;
17259;SDS011;8746;49.230;9.220;2023-03-15T13:18:54;2.00;;;1.70;;
17259;SDS011;8746;49.230;9.220;2023-03-15T13:24:29;2.23;;;1.97;;
17259;SDS011;8746;49.230;9.220;2023-03-15T13:27:01;3.30;;;2.07;;
17259;SDS011;8746;49.230;9.220;2023-03-15T13:29:47;3.87;;;2.17;;
17259;SDS011;8746;49.230;9.220;2023-03-15T13:32:13;2.27;;;2.07;;
17259;SDS011;8746;49.230;9.220;2023-03-15T13:34:42;2.70;;;2.07;;
17259;SDS011;8746;49.230;9.220;2023-03-15T13:37:22;4.00;;;2.27;;
17259;SDS011;8746;49.230;9.220;2023-03-15T13:39:56;3.60;;;2.27;;
17259;SDS011;8746;49.230;9.220;2023-03-15T13:42:25;3.03;;;2.33;;
17259;SDS011;8746;49.230;9.220;2023-03-15T13:47:47;1.33;;;1.23;;
17259;SDS011;8746;49.230;9.220;2023-03-15T13:50:21;1.50;;;1.40;;
17259;SDS011;8746;49.230;9.220;2023-03-15T13:52:47;1.60;;;1.43;;
17259;SDS011;8746;49.230;9.220;2023-03-15T13:55:19;2.23;;;1.70;;
17259;SDS011;8746;49.230;9.220;2023-03-15T13:57:47;1.60;;;1.50;;
17259;SDS011;8746;49.230;9.220;2023-03-15T14:00:17;3.40;;;2.00;;
17259;SDS011;8746;49.230;9.220;2023-03-15T14:02:47;2.97;;;2.67;;
17259;SDS011;8746;49.230;9.220;2023-03-15T14:05:19;2.97;;;2.53;;
17259;SDS011;8746;49.230;9.220;2023-03-15T14:07:54;2.90;;;2.70;;
17259;SDS011;8746;49.230;9.220;2023-03-15T14:12:46;2.70;;;2.50;;
17259;SDS011;8746;49.230;9.220;2023-03-15T14:15:16;2.77;;;2.50;;
17259;SDS011;8746;49.230;9.220;2023-03-15T14:18:12;3.00;;;2.70;;
17259;SDS011;8746;49.230;9.220;2023-03-15T14:20:45;2.93;;;2.63;;
17259;SDS011;8746;49.230;9.220;2023-03-15T14:23:17;3.10;;;2.90;;
17259;SDS011;8746;49.230;9.220;2023-03-15T14:25:51;3.00;;;2.80;;
17259;SDS011;8746;49.230;9.220;2023-03-15T14:28:18;3.73;;;2.73;;
17259;SDS011;8746;49.230;9.220;2023-03-15T14:30:52;3.17;;;2.87;;
17259;SDS011;8746;49.230;9.220;2023-03-15T14:35:57;3.70;;;3.13;;
17259;SDS011;8746;49.230;9.220;2023-03-15T14:38:25;3.53;;;3.23;;
17259;SDS011;8746;49.230;9.220;2023-03-15T14:41:08;4.10;;;3.50;;
17259;SDS011;8746;49.230;9.220;2023-03-15T14:43:43;3.90;;;3.43;;
17259;SDS011;8746;49.230;9.220;2023-03-15T14:46:08;3.70;;;3.40;;
17259;SDS011;8746;49.230;9.220;2023-03-15T14:48:33;4.77;;;3.90;;
17259;SDS011;8746;49.230;9.220;2023-03-15T14:50:59;3.77;;;3.47;;
17259;SDS011;8746;49.230;9.220;2023-03-15T14:53:25;3.83;;;3.40;;
17259;SDS011;8746;49.230;9.220;2023-03-15T14:55:56;3.30;;;3.07;;
17259;SDS011;8746;49.230;9.220;2023-03-15T14:58:21;3.37;;;3.13;;
17259;SDS011;8746;49.230;9.220;2023-03-15T15:00:47;3.60;;;3.23;;
17259;SDS011;8746;49.230;9.220;2023-03-15T15:03:34;2.90;;;2.70;;
17259;SDS011;8746;49.230;9.220;2023-03-15T15:06:02;3.60;;;3.03;;
17259;SDS011;8746;49.230;9.220;2023-03-15T15:08:32;2.80;;;2.60;;
17259;SDS011;8746;49.230;9.220;2023-03-15T15:11:02;3.73;;;3.33;;
17259;SDS011;8746;49.230;9.220;2023-03-15T15:13:28;3.40;;;3.10;;
17259;SDS011;8746;49.230;9.220;2023-03-15T15:15:55;4.57;;;3.20;;
17259;SDS011;8746;49.230;9.220;2023-03-15T15:18:22;3.83;;;3.10;;
17259;SDS011;8746;49.230;9.220;2023-03-15T15:20:49;3.30;;;3.00;;
17259;SDS011;8746;49.230;9.220;2023-03-15T15:23:19;3.80;;;2.90;;
17259;SDS011;8746;49.230;9.220;2023-03-15T15:25:47;3.57;;;3.27;;
17259;SDS011;8746;49.230;9.220;2023-03-15T15:28:14;3.53;;;3.23;;
17259;SDS011;8746;49.230;9.220;2023-03-15T15:30:39;3.20;;;2.90;;
17259;SDS011;8746;49.230;9.220;2023-03-15T15:33:04;3.53;;;3.07;;
17259;SDS011;8746;49.230;9.220;2023-03-15T15:35:30;2.63;;;2.43;;
17259;SDS011;8746;49.230;9.220;2023-03-15T15:37:56;3.70;;;2.83;;
17259;SDS011;8746;49.230;9.220;2023-03-15T15:40:23;3.43;;;2.60;;
17259;SDS011;8746;49.230;9.220;2023-03-15T15:42:51;3.57;;;3.27;;
17259;SDS011;8746;49.230;9.220;2023-03-15T15:45:17;2.90;;;2.70;;
17259;SDS011;8746;49.230;9.220;2023-03-15T15:47:43;2.93;;;2.73;;
17259;SDS011;8746;49.230;9.220;2023-03-15T15:50:10;3.17;;;2.87;;
17259;SDS011;8746;49.230;9.220;2023-03-15T15:52:38;3.60;;;3.30;;
17259;SDS011;8746;49.230;9.220;2023-03-15T15:55:11;3.53;;;3.20;;
17259;SDS011;8746;49.230;9.220;2023-03-15T15:57:39;3.47;;;3.00;;
17259;SDS011;8746;49.230;9.220;2023-03-15T16:00:06;3.23;;;2.93;;
17259;SDS011;8746;49.230;9.220;2023-03-15T16:02:32;3.10;;;2.90;;
17259;SDS011;8746;49.230;9.220;2023-03-15T16:04:58;2.90;;;2.60;;
17259;SDS011;8746;49.230;9.220;2023-03-15T16:07:23;3.20;;;2.90;;
17259;SDS011;8746;49.230;9.220;2023-03-15T16:09:49;2.53;;;2.33;;
17259;SDS011;8746;49.230;9.220;2023-03-15T16:12:20;2.13;;;2.00;;
17259;SDS011;8746;49.230;9.220;2023-03-15T16:14:48;2.77;;;2.53;;
17259;SDS011;8746;49.230;9.220;2023-03-15T16:17:15;2.30;;;2.10;;
17259;SDS011;8746;49.230;9.220;2023-03-15T16:19:46;2.33;;;2.13;;
17259;SDS011;8746;49.230;9.220;2023-03-15T16:22:11;2.30;;;2.10;;
17259;SDS011;8746;49.230;9.220;2023-03-15T16:24:37;2.80;;;2.60;;
17259;SDS011;8746;49.230;9.220;2023-03-15T16:27:07;2.33;;;2.10;;